createdAt,value
2022-10-10T00:04:43.277Z,5.47
2022-10-10T00:10:48.410Z,5.57
2022-10-10T00:17:05.334Z,5.40
2022-10-10T00:23:11.117Z,5.55
2022-10-10T00:29:42.497Z,5.70
2022-10-10T00:36:05.853Z,5.18
2022-10-10T00:42:12.453Z,5.25
2022-10-10T00:48:21.764Z,5.47
2022-10-10T00:54:26.437Z,5.50
2022-10-10T01:00:40.280Z,5.68
2022-10-10T01:07:02.848Z,5.10
2022-10-10T01:13:14.323Z,5.70
2022-10-10T01:19:31.504Z,5.20
2022-10-10T01:26:00.011Z,5.35
2022-10-10T01:32:07.112Z,5.03
2022-10-10T01:38:21.984Z,5.30
2022-10-10T01:44:48.417Z,5.10
2022-10-10T01:57:45.409Z,5.40
2022-10-10T02:03:52.331Z,5.75
2022-10-10T02:10:10.812Z,5.30
2022-10-10T02:16:28.321Z,5.20
2022-10-10T02:22:32.895Z,5.68
2022-10-10T02:28:40.605Z,5.50
2022-10-10T02:34:49.248Z,5.57
2022-10-10T02:40:59.438Z,5.72
2022-10-10T02:47:16.872Z,5.78
2022-10-10T02:53:33.195Z,6.13
2022-10-10T02:59:42.715Z,6.18
2022-10-10T03:05:53.519Z,5.53
2022-10-10T03:11:56.905Z,5.90
2022-10-10T03:18:00.797Z,5.85
2022-10-10T03:24:21.171Z,5.47
2022-10-10T03:30:40.363Z,6.10
2022-10-10T03:36:43.944Z,6.07
2022-10-10T03:42:53.514Z,5.93
2022-10-10T03:49:10.075Z,6.63
2022-10-10T03:55:29.839Z,6.10
2022-10-10T04:01:34.945Z,6.13
2022-10-10T04:07:39.056Z,5.57
2022-10-10T04:13:47.468Z,5.65
2022-10-10T04:26:34.596Z,5.07
2022-10-10T04:32:45.571Z,5.97
2022-10-10T04:39:05.264Z,6.45
2022-10-10T04:45:09.991Z,7.65
2022-10-10T04:51:13.487Z,6.65
2022-10-10T04:57:23.292Z,7.43
2022-10-10T05:03:27.060Z,7.45
2022-10-10T05:09:37.215Z,7.05
2022-10-10T05:15:48.113Z,8.18
2022-10-10T05:21:51.592Z,7.57
2022-10-10T05:27:57.126Z,6.43
2022-10-10T05:34:16.183Z,6.63
2022-10-10T05:40:19.885Z,6.45
2022-10-10T05:46:24.849Z,7.07
2022-10-10T05:52:37.294Z,7.07
2022-10-10T05:58:49.962Z,8.10
2022-10-10T06:04:54.018Z,7.68
2022-10-10T06:11:04.921Z,8.27
2022-10-10T06:17:14.146Z,7.35
2022-10-10T06:23:24.000Z,7.18
2022-10-10T06:29:49.969Z,7.80
2022-10-10T06:43:21.544Z,7.57
2022-10-10T06:49:34.409Z,8.35
2022-10-10T06:55:39.618Z,8.90
2022-10-10T07:01:45.941Z,7.80
2022-10-10T07:07:49.508Z,8.50
2022-10-10T07:20:32.272Z,9.38
2022-10-10T07:26:38.273Z,9.30
2022-10-10T07:33:12.908Z,9.80
2022-10-10T07:39:35.301Z,6.82
2022-10-10T07:45:38.862Z,10.40
2022-10-10T07:51:48.214Z,6.72
2022-10-10T07:58:04.584Z,7.15
2022-10-10T08:04:19.290Z,8.68
2022-10-10T08:10:30.376Z,9.32
2022-10-10T08:16:37.665Z,8.95
2022-10-10T08:22:42.105Z,8.32
2022-10-10T08:29:05.523Z,6.63
2022-10-10T08:35:10.010Z,8.73
2022-10-10T08:41:16.936Z,9.07
2022-10-10T08:47:49.713Z,8.77
2022-10-10T08:53:57.529Z,9.35
2022-10-10T09:00:18.667Z,9.23
2022-10-10T09:06:40.529Z,8.55
2022-10-10T09:13:20.014Z,8.93
2022-10-10T09:19:29.241Z,8.45
2022-10-10T09:25:49.510Z,6.43
2022-10-10T09:31:56.063Z,6.65
2022-10-10T09:38:04.785Z,5.93
2022-10-10T09:44:12.809Z,3.50
2022-10-10T09:50:21.033Z,5.95
2022-10-10T09:57:00.174Z,6.75
2022-10-10T10:10:01.251Z,4.72
2022-10-10T10:16:08.262Z,5.00
2022-10-10T10:22:38.477Z,6.90
2022-10-10T10:28:53.141Z,4.50
2022-10-10T10:35:12.633Z,6.47
2022-10-10T10:41:24.639Z,5.88
2022-10-10T10:48:01.590Z,5.40
2022-10-10T10:54:11.921Z,4.28
2022-10-10T11:01:28.757Z,6.30
2022-10-10T11:07:20.569Z,7.13
2022-10-10T11:13:44.630Z,6.18
2022-10-10T11:19:59.354Z,6.68
2022-10-10T11:26:07.562Z,3.55
2022-10-10T11:32:34.698Z,4.40
2022-10-10T11:39:05.580Z,4.13
2022-10-10T11:45:19.512Z,4.57
2022-10-10T11:51:58.088Z,5.75
2022-10-10T11:58:25.730Z,6.10
2022-10-10T12:04:36.799Z,8.65
2022-10-10T12:10:43.182Z,7.30
2022-10-10T12:16:53.424Z,6.40
2022-10-10T12:23:27.347Z,6.68
2022-10-10T12:29:42.598Z,4.78
2022-10-10T12:36:20.045Z,3.35
2022-10-10T12:42:42.809Z,1.73
2022-10-10T12:48:47.837Z,1.58
2022-10-10T12:55:07.919Z,1.90
2022-10-10T13:07:53.243Z,1.63
2022-10-10T13:14:10.310Z,1.00
2022-10-10T13:20:33.169Z,1.00
2022-10-10T13:26:39.013Z,1.20
2022-10-10T13:32:53.872Z,1.80
2022-10-10T13:39:29.857Z,0.90
2022-10-10T13:45:40.534Z,1.08
2022-10-10T13:52:01.461Z,1.38
2022-10-10T13:58:11.524Z,1.17
2022-10-10T14:04:20.311Z,1.20
2022-10-10T14:10:38.113Z,1.10
2022-10-10T14:17:01.703Z,1.27
2022-10-10T14:23:05.449Z,1.23
2022-10-10T14:29:21.148Z,1.30
2022-10-10T14:35:25.355Z,1.33
2022-10-10T14:41:29.200Z,1.20
2022-10-10T14:47:37.135Z,1.77
2022-10-10T15:00:40.493Z,2.35
2022-10-10T15:07:11.762Z,2.70
2022-10-10T15:13:16.648Z,3.58
2022-10-10T15:19:25.338Z,3.00
2022-10-10T15:25:34.283Z,1.67
2022-10-10T15:31:45.085Z,1.50
2022-10-10T15:37:52.844Z,1.00
2022-10-10T15:44:02.419Z,1.70
2022-10-10T15:50:10.326Z,1.58
2022-10-10T15:56:20.438Z,1.70
2022-10-10T16:02:26.346Z,1.70
2022-10-10T16:08:31.221Z,1.40
2022-10-10T16:14:38.289Z,1.83
2022-10-10T16:20:56.649Z,1.10
2022-10-10T16:27:09.255Z,1.17
2022-10-10T16:33:12.636Z,1.20
2022-10-10T16:39:16.316Z,1.50
2022-10-10T16:45:21.174Z,1.85
2022-10-10T16:51:28.304Z,1.90
2022-10-10T16:57:35.652Z,2.05
2022-10-10T17:03:42.592Z,2.50
2022-10-10T17:09:47.369Z,1.98
2022-10-10T17:15:53.217Z,2.10
2022-10-10T17:21:58.695Z,2.67
2022-10-10T17:28:02.104Z,2.30
2022-10-10T17:34:08.034Z,1.90
2022-10-10T17:40:13.306Z,2.30
2022-10-10T17:46:35.332Z,3.00
2022-10-10T17:52:39.556Z,2.50
2022-10-10T17:58:50.928Z,3.25
2022-10-10T18:05:00.830Z,2.97
2022-10-10T18:11:05.903Z,3.22
2022-10-10T18:17:14.058Z,3.97
2022-10-10T18:23:17.482Z,3.30
2022-10-10T18:29:23.136Z,3.28
2022-10-10T18:35:29.990Z,3.20
2022-10-10T18:42:26.094Z,4.05
2022-10-10T18:55:35.997Z,6.07
2022-10-10T19:01:40.516Z,6.95
2022-10-10T19:07:51.338Z,4.47
2022-10-10T19:13:58.236Z,3.70
2022-10-10T19:20:31.493Z,4.65
2022-10-10T19:26:49.022Z,3.60
2022-10-10T19:32:54.840Z,5.13
2022-10-10T19:39:08.372Z,6.13
2022-10-10T19:45:14.903Z,8.45
2022-10-10T19:51:22.265Z,5.47
2022-10-10T19:57:28.262Z,4.10
2022-10-10T20:03:31.847Z,6.05
2022-10-10T20:09:36.950Z,3.78
2022-10-10T20:15:42.210Z,3.90
2022-10-10T20:21:45.717Z,5.10
2022-10-10T20:27:50.568Z,6.07
2022-10-10T20:33:55.564Z,6.95
2022-10-10T20:39:58.927Z,7.18
2022-10-10T20:46:06.804Z,5.70
2022-10-10T20:52:10.408Z,5.65
2022-10-10T20:58:13.983Z,5.50
2022-10-10T21:04:18.862Z,7.18
2022-10-10T21:10:24.807Z,7.93
2022-10-10T21:23:36.227Z,5.80
2022-10-10T21:29:39.693Z,5.30
2022-10-10T21:35:43.120Z,5.30
2022-10-10T21:41:47.851Z,5.43
2022-10-10T21:47:57.358Z,5.63
2022-10-10T21:54:02.949Z,5.50
2022-10-10T22:00:09.046Z,6.00
2022-10-10T22:06:13.399Z,5.78
2022-10-10T22:12:16.807Z,5.75
2022-10-10T22:18:21.586Z,5.57
2022-10-10T22:24:25.136Z,6.15
2022-10-10T22:30:28.907Z,6.38
2022-10-10T22:36:33.672Z,6.13
2022-10-10T22:42:37.239Z,5.68
2022-10-10T22:48:43.429Z,5.70
2022-10-10T22:54:48.237Z,6.88
2022-10-10T23:00:51.874Z,5.38
2022-10-10T23:06:55.547Z,5.40
2022-10-10T23:13:00.339Z,4.57
2022-10-10T23:19:05.676Z,5.65
2022-10-10T23:25:11.942Z,5.75
2022-10-10T23:31:19.625Z,5.38
2022-10-10T23:37:23.193Z,5.32
2022-10-10T23:43:26.747Z,5.30
2022-10-10T23:49:31.816Z,6.10
2022-10-10T23:55:35.498Z,6.28
